Time;durP1;ratioP1;P1;durP2;ratioP2;P2;SDS_P1;SDS_P2;PMS_P1;PMS_P2;Temp;Humidity;BMP_temperature;BMP_pressure;BME280_temperature;BME280_humidity;BME280_pressure;Samples;Min_cycle;Max_cycle;Signal;HPM_P1;HPM_P2
2021/07/20 00:00:30;;;;;;;9.63;7.10;;;;;;;;;;4978087;28;20038;-72
2021/07/20 00:02:56;;;;;;;6.97;6.30;;;;;;;;;;4978036;28;20045;-72
2021/07/20 00:05:26;;;;;;;11.88;7.00;;;;;;;;;;4978252;28;20023;-72
2021/07/20 00:07:53;;;;;;;8.48;6.85;;;;;;;;;;4978040;28;20110;-72
2021/07/20 00:10:22;;;;;;;7.43;6.68;;;;;;;;;;4978266;28;20058;-72
2021/07/20 00:12:48;;;;;;;10.00;6.35;;;;;;;;;;4977946;28;20037;-72
2021/07/20 00:15:14;;;;;;;7.85;6.80;;;;;;;;;;4977617;28;20026;-72
2021/07/20 00:17:42;;;;;;;7.45;6.50;;;;;;;;;;4977338;28;20058;-72
2021/07/20 00:20:08;;;;;;;7.72;6.78;;;;;;;;;;4978217;28;20026;-70
2021/07/20 00:22:34;;;;;;;8.70;6.32;;;;;;;;;;4977871;28;20066;-71
2021/07/20 00:25:00;;;;;;;9.75;6.03;;;;;;;;;;4977829;28;20035;-72
2021/07/20 00:27:27;;;;;;;9.05;6.47;;;;;;;;;;4977364;28;20030;-72
2021/07/20 00:29:53;;;;;;;8.05;6.63;;;;;;;;;;4977670;28;20113;-72
2021/07/20 00:32:19;;;;;;;12.27;6.43;;;;;;;;;;4978091;28;20462;-72
2021/07/20 00:34:45;;;;;;;9.05;7.40;;;;;;;;;;4977318;28;20428;-72
2021/07/20 00:37:11;;;;;;;9.90;7.10;;;;;;;;;;4977942;28;20049;-71
2021/07/20 00:39:37;;;;;;;11.10;7.05;;;;;;;;;;4977316;28;20026;-72
2021/07/20 00:42:03;;;;;;;9.75;6.63;;;;;;;;;;4977499;28;20162;-72
2021/07/20 00:44:29;;;;;;;12.15;8.90;;;;;;;;;;4977337;28;20041;-72
2021/07/20 00:46:55;;;;;;;8.57;6.82;;;;;;;;;;4977278;28;20473;-71
2021/07/20 00:49:21;;;;;;;9.55;7.20;;;;;;;;;;4977227;28;20027;-71
2021/07/20 00:51:47;;;;;;;8.55;7.18;;;;;;;;;;4977009;28;20535;-72
2021/07/20 00:54:13;;;;;;;9.32;8.27;;;;;;;;;;4977090;28;20055;-72
2021/07/20 00:56:40;;;;;;;12.57;9.15;;;;;;;;;;4977042;28;20054;-72
2021/07/20 00:59:06;;;;;;;7.97;7.18;;;;;;;;;;4977160;28;20449;-72
2021/07/20 01:01:32;;;;;;;11.35;7.20;;;;;;;;;;4977353;28;20034;-72
2021/07/20 01:03:58;;;;;;;8.63;7.78;;;;;;;;;;4976732;28;20046;-72
2021/07/20 01:06:24;;;;;;;13.95;9.88;;;;;;;;;;4977000;28;20031;-72
2021/07/20 01:08:51;;;;;;;10.52;9.07;;;;;;;;;;4977237;28;20023;-72
2021/07/20 01:11:18;;;;;;;12.00;9.00;;;;;;;;;;4976588;28;20101;-72
2021/07/20 01:13:44;;;;;;;9.48;8.23;;;;;;;;;;4976568;28;20038;-72
2021/07/20 01:16:10;;;;;;;18.23;9.43;;;;;;;;;;4977314;28;20023;-72
2021/07/20 01:18:36;;;;;;;11.73;9.95;;;;;;;;;;4976894;28;20034;-72
2021/07/20 01:21:02;;;;;;;11.73;10.52;;;;;;;;;;4976904;28;20481;-72
2021/07/20 01:23:45;;;;;;;14.63;11.73;;;;;;;;;;4976795;28;20034;-72
2021/07/20 01:26:11;;;;;;;16.02;10.68;;;;;;;;;;4976289;28;20050;-72
2021/07/20 01:28:38;;;;;;;13.93;12.02;;;;;;;;;;4976124;28;20026;-72
2021/07/20 01:31:06;;;;;;;13.45;10.48;;;;;;;;;;4976856;28;20027;-70
2021/07/20 01:33:32;;;;;;;16.90;11.05;;;;;;;;;;4976203;28;20027;-71
2021/07/20 01:35:59;;;;;;;25.05;12.00;;;;;;;;;;4976063;28;20110;-71
2021/07/20 01:38:26;;;;;;;18.73;13.00;;;;;;;;;;4976287;28;20110;-71
2021/07/20 01:40:52;;;;;;;14.95;13.50;;;;;;;;;;4976393;28;20382;-72
2021/07/20 01:43:20;;;;;;;16.15;11.10;;;;;;;;;;4976481;28;20031;-72
2021/07/20 01:45:46;;;;;;;15.52;11.40;;;;;;;;;;4976267;28;20037;-72
2021/07/20 01:48:12;;;;;;;16.13;14.43;;;;;;;;;;4976675;28;20023;-72
2021/07/20 01:50:38;;;;;;;20.63;13.30;;;;;;;;;;4976335;28;20034;-72
2021/07/20 01:53:04;;;;;;;16.92;12.68;;;;;;;;;;4975975;28;20078;-72
2021/07/20 01:55:30;;;;;;;18.52;12.93;;;;;;;;;;4975792;28;20146;-72
2021/07/20 01:57:56;;;;;;;13.80;11.45;;;;;;;;;;4975984;28;20058;-72
2021/07/20 02:00:23;;;;;;;19.13;12.55;;;;;;;;;;4976114;28;20034;-72
2021/07/20 02:03:03;;;;;;;15.80;12.35;;;;;;;;;;4975958;28;20035;-72
2021/07/20 02:08:31;;;;;;;16.77;12.82;;;;;;;;;;4975438;28;20491;-72
2021/07/20 02:10:59;;;;;;;19.42;13.48;;;;;;;;;;4976240;28;20047;-72
2021/07/20 02:13:25;;;;;;;19.20;12.75;;;;;;;;;;4975671;28;20078;-72
2021/07/20 02:15:52;;;;;;;14.85;12.07;;;;;;;;;;4975283;28;20048;-72
2021/07/20 02:18:19;;;;;;;15.70;13.85;;;;;;;;;;4975485;28;20054;-72
2021/07/20 02:20:45;;;;;;;14.43;12.07;;;;;;;;;;4976080;28;20019;-72
2021/07/20 02:23:11;;;;;;;15.73;11.10;;;;;;;;;;4975437;28;20035;-72
2021/07/20 02:25:38;;;;;;;17.38;14.90;;;;;;;;;;4975496;28;20022;-72
2021/07/20 02:28:04;;;;;;;19.42;12.90;;;;;;;;;;4975549;28;20358;-71
2021/07/20 02:30:30;;;;;;;16.25;12.77;;;;;;;;;;4975628;28;20031;-71
2021/07/20 02:32:56;;;;;;;18.70;13.82;;;;;;;;;;4975115;28;20125;-71
2021/07/20 02:35:24;;;;;;;23.05;13.05;;;;;;;;;;4975822;28;20085;-71
2021/07/20 02:37:51;;;;;;;20.40;14.10;;;;;;;;;;4975242;28;20061;-72
2021/07/20 02:40:17;;;;;;;14.38;11.93;;;;;;;;;;4974678;28;20026;-71
2021/07/20 02:42:43;;;;;;;19.60;14.23;;;;;;;;;;4975724;28;20026;-72
2021/07/20 02:45:10;;;;;;;15.68;12.10;;;;;;;;;;4975352;28;20023;-71
2021/07/20 02:47:36;;;;;;;19.15;14.60;;;;;;;;;;4974938;28;20035;-72
2021/07/20 02:50:04;;;;;;;18.95;12.70;;;;;;;;;;4975879;28;20027;-71
2021/07/20 02:52:30;;;;;;;19.30;12.95;;;;;;;;;;4975427;28;20031;-71
2021/07/20 02:54:57;;;;;;;17.65;14.15;;;;;;;;;;4974633;28;20668;-71
2021/07/20 02:57:23;;;;;;;16.92;12.32;;;;;;;;;;4974864;28;20027;-71
2021/07/20 02:59:49;;;;;;;18.13;12.43;;;;;;;;;;4974119;28;20118;-71
2021/07/20 03:02:15;;;;;;;16.67;12.05;;;;;;;;;;4974393;28;20030;-71
2021/07/20 03:04:41;;;;;;;16.55;13.65;;;;;;;;;;4974576;28;20374;-71
2021/07/20 03:07:09;;;;;;;23.08;11.07;;;;;;;;;;4974576;28;20023;-71
2021/07/20 03:09:35;;;;;;;16.50;12.55;;;;;;;;;;4974181;28;20056;-72
2021/07/20 03:12:03;;;;;;;19.13;12.43;;;;;;;;;;4974144;28;20030;-71
2021/07/20 03:14:30;;;;;;;16.35;11.70;;;;;;;;;;4974371;28;20023;-71
2021/07/20 03:16:56;;;;;;;17.70;11.68;;;;;;;;;;4974132;28;20030;-71
2021/07/20 03:19:23;;;;;;;15.05;12.30;;;;;;;;;;4974293;28;20552;-71
2021/07/20 03:21:49;;;;;;;132.35;49.28;;;;;;;;;;4973963;28;20113;-71
2021/07/20 03:24:16;;;;;;;97.80;41.83;;;;;;;;;;4974418;28;20030;-71
2021/07/20 03:26:42;;;;;;;64.47;29.77;;;;;;;;;;4973997;28;20023;-71
2021/07/20 03:29:08;;;;;;;65.15;25.52;;;;;;;;;;4972989;28;20094;-71
2021/07/20 03:31:34;;;;;;;45.38;21.90;;;;;;;;;;4973753;28;20035;-71
2021/07/20 03:34:00;;;;;;;71.18;22.40;;;;;;;;;;4973837;28;20023;-71
2021/07/20 03:36:26;;;;;;;39.28;21.35;;;;;;;;;;4974353;28;20397;-71
2021/07/20 03:38:52;;;;;;;36.10;18.50;;;;;;;;;;4974169;28;20117;-71
2021/07/20 03:41:19;;;;;;;26.40;15.23;;;;;;;;;;4973768;28;20030;-71
2021/07/20 03:43:45;;;;;;;33.17;16.73;;;;;;;;;;4973553;28;20034;-71
2021/07/20 03:46:11;;;;;;;29.02;14.40;;;;;;;;;;4973284;28;20050;-71
2021/07/20 03:48:37;;;;;;;21.50;15.20;;;;;;;;;;4973765;28;20066;-71
2021/07/20 03:51:03;;;;;;;29.88;15.95;;;;;;;;;;4974362;28;20026;-71
2021/07/20 03:53:29;;;;;;;26.37;15.43;;;;;;;;;;4932656;28;1286192;-71
2021/07/20 03:55:56;;;;;;;24.48;15.50;;;;;;;;;;4978215;28;20041;-72
2021/07/20 03:58:22;;;;;;;20.08;13.65;;;;;;;;;;4978335;28;20037;-71
2021/07/20 04:00:49;;;;;;;22.33;12.90;;;;;;;;;;4978006;28;20117;-71
2021/07/20 04:03:24;;;;;;;19.08;14.57;;;;;;;;;;4978283;28;20042;-71
2021/07/20 04:05:53;;;;;;;23.42;12.25;;;;;;;;;;4977929;28;20158;-71
2021/07/20 04:08:19;;;;;;;22.17;14.57;;;;;;;;;;4978382;28;20019;-71
2021/07/20 04:10:45;;;;;;;20.40;13.32;;;;;;;;;;4978361;28;20466;-71
2021/07/20 04:13:11;;;;;;;18.17;12.95;;;;;;;;;;4977670;28;20062;-71
2021/07/20 04:15:40;;;;;;;17.48;12.85;;;;;;;;;;4980708;28;20077;-71
2021/07/20 04:18:06;;;;;;;20.02;14.20;;;;;;;;;;4976800;28;20030;-71
2021/07/20 04:20:32;;;;;;;17.25;14.20;;;;;;;;;;4978288;28;20031;-68
2021/07/20 04:22:58;;;;;;;16.27;12.48;;;;;;;;;;4978610;28;20045;-70
2021/07/20 04:25:24;;;;;;;15.82;11.98;;;;;;;;;;4979401;28;20058;-69
2021/07/20 04:27:51;;;;;;;14.43;11.18;;;;;;;;;;4978762;28;20444;-70
2021/07/20 04:30:17;;;;;;;18.92;12.45;;;;;;;;;;4995870;28;20070;-70
2021/07/20 04:32:45;;;;;;;19.42;13.13;;;;;;;;;;4998774;28;20468;-69
2021/07/20 04:35:12;;;;;;;16.42;12.30;;;;;;;;;;4997914;28;20472;-69
2021/07/20 04:37:38;;;;;;;22.08;10.45;;;;;;;;;;4998532;28;20041;-72
2021/07/20 04:40:05;;;;;;;17.20;12.40;;;;;;;;;;4980176;28;20038;-70
2021/07/20 04:42:31;;;;;;;20.42;12.25;;;;;;;;;;4978556;28;20034;-72
2021/07/20 04:44:57;;;;;;;15.07;11.68;;;;;;;;;;4978903;28;20129;-70
2021/07/20 04:47:23;;;;;;;17.40;12.38;;;;;;;;;;4978720;28;20473;-71
2021/07/20 04:49:49;;;;;;;22.75;13.25;;;;;;;;;;4977655;28;20369;-75
2021/07/20 04:52:15;;;;;;;21.02;12.18;;;;;;;;;;4978275;28;20031;-73
2021/07/20 04:54:41;;;;;;;17.85;10.75;;;;;;;;;;4978334;28;20184;-69
2021/07/20 04:57:07;;;;;;;24.75;10.63;;;;;;;;;;4978536;28;20027;-72
2021/07/20 04:59:33;;;;;;;14.52;11.52;;;;;;;;;;4977256;28;20074;-71
2021/07/20 05:01:59;;;;;;;16.13;10.70;;;;;;;;;;4978397;28;20085;-73
2021/07/20 05:04:25;;;;;;;20.15;12.25;;;;;;;;;;4977153;28;20031;-73
2021/07/20 05:06:51;;;;;;;14.57;9.85;;;;;;;;;;4978167;28;20035;-71
2021/07/20 05:09:17;;;;;;;15.90;11.18;;;;;;;;;;4987229;28;20472;-72
2021/07/20 05:11:44;;;;;;;12.93;10.52;;;;;;;;;;4997228;28;20049;-71
2021/07/20 05:14:10;;;;;;;13.23;11.02;;;;;;;;;;4997815;28;20100;-72
2021/07/20 05:16:36;;;;;;;15.00;11.57;;;;;;;;;;4997823;28;20026;-72
2021/07/20 05:19:03;;;;;;;16.00;11.82;;;;;;;;;;4983640;28;20053;-71
2021/07/20 05:21:29;;;;;;;15.00;11.60;;;;;;;;;;4977915;28;20037;-72
2021/07/20 05:23:55;;;;;;;15.57;10.65;;;;;;;;;;4977900;28;20037;-73
2021/07/20 05:26:22;;;;;;;15.15;11.82;;;;;;;;;;4978322;28;20026;-74
2021/07/20 05:28:48;;;;;;;14.68;11.32;;;;;;;;;;4976278;28;20031;-74
2021/07/20 05:31:14;;;;;;;16.00;12.70;;;;;;;;;;4977088;28;20038;-73
2021/07/20 05:33:40;;;;;;;18.58;12.85;;;;;;;;;;4976807;28;20023;-72
2021/07/20 05:36:08;;;;;;;19.27;13.52;;;;;;;;;;4976823;28;20492;-72
2021/07/20 05:38:34;;;;;;;31.92;11.95;;;;;;;;;;4975917;28;20037;-71
2021/07/20 05:41:00;;;;;;;13.07;10.98;;;;;;;;;;4976643;28;20037;-72
2021/07/20 05:43:26;;;;;;;14.30;11.20;;;;;;;;;;4976499;28;20050;-70
2021/07/20 05:45:54;;;;;;;19.77;10.68;;;;;;;;;;4976374;28;20029;-72
2021/07/20 05:48:20;;;;;;;13.55;11.80;;;;;;;;;;4976023;28;20039;-72
2021/07/20 05:50:50;;;;;;;13.75;11.05;;;;;;;;;;4976873;28;20037;-72
2021/07/20 05:53:17;;;;;;;15.43;11.15;;;;;;;;;;4976700;28;20030;-73
2021/07/20 05:55:46;;;;;;;13.70;9.90;;;;;;;;;;4975640;28;20039;-71
2021/07/20 05:58:12;;;;;;;18.05;11.35;;;;;;;;;;4975920;28;20453;-75
2021/07/20 06:00:38;;;;;;;15.60;9.50;;;;;;;;;;4982091;28;20031;-72
2021/07/20 06:03:04;;;;;;;19.48;10.05;;;;;;;;;;4975826;28;20093;-72
2021/07/20 06:05:30;;;;;;;16.42;14.57;;;;;;;;;;4976063;28;20030;-72
2021/07/20 06:07:56;;;;;;;18.55;11.38;;;;;;;;;;4976345;28;20504;-72
2021/07/20 06:10:22;;;;;;;23.10;12.85;;;;;;;;;;4977307;28;20026;-73
2021/07/20 06:12:52;;;;;;;30.75;11.93;;;;;;;;;;4975992;28;20473;-73
2021/07/20 06:15:19;;;;;;;32.13;13.43;;;;;;;;;;4976138;28;20134;-73
2021/07/20 06:17:46;;;;;;;24.83;12.98;;;;;;;;;;4976704;28;20058;-73
2021/07/20 06:20:12;;;;;;;23.23;15.77;;;;;;;;;;4977361;28;20030;-73
2021/07/20 06:22:39;;;;;;;19.83;11.70;;;;;;;;;;4977078;28;20030;-73
2021/07/20 06:25:05;;;;;;;16.65;10.52;;;;;;;;;;4976418;28;20085;-73
2021/07/20 06:27:31;;;;;;;14.90;11.15;;;;;;;;;;4977088;28;20118;-73
2021/07/20 06:29:58;;;;;;;16.25;10.00;;;;;;;;;;4977493;28;20106;-75
2021/07/20 06:32:24;;;;;;;23.52;11.77;;;;;;;;;;4977463;28;20033;-73
2021/07/20 06:34:50;;;;;;;20.67;10.90;;;;;;;;;;4976534;28;20465;-72
2021/07/20 06:37:16;;;;;;;17.35;9.57;;;;;;;;;;4976510;28;20121;-74
2021/07/20 06:39:42;;;;;;;12.15;9.20;;;;;;;;;;4974601;28;20027;-74
2021/07/20 06:42:08;;;;;;;18.48;11.07;;;;;;;;;;4975451;28;20058;-74
2021/07/20 06:44:35;;;;;;;21.33;13.00;;;;;;;;;;4974737;28;20500;-74
2021/07/20 06:47:01;;;;;;;14.98;10.75;;;;;;;;;;4975358;28;20424;-75
2021/07/20 06:49:27;;;;;;;14.73;12.15;;;;;;;;;;4974874;28;20476;-74
2021/07/20 06:51:53;;;;;;;13.20;10.15;;;;;;;;;;4974540;28;20110;-74
2021/07/20 06:54:19;;;;;;;10.90;9.73;;;;;;;;;;4974834;28;20128;-74
2021/07/20 06:56:48;;;;;;;14.90;11.02;;;;;;;;;;4975098;28;20065;-74
2021/07/20 06:59:14;;;;;;;13.50;11.05;;;;;;;;;;4975078;28;20031;-74
2021/07/20 07:01:40;;;;;;;17.55;11.35;;;;;;;;;;4975074;28;20082;-74
2021/07/20 07:04:10;;;;;;;18.92;11.95;;;;;;;;;;4974960;28;20035;-74
2021/07/20 07:06:39;;;;;;;23.30;12.93;;;;;;;;;;4975256;28;20035;-75
2021/07/20 07:09:05;;;;;;;22.35;11.98;;;;;;;;;;4974830;28;20089;-75
2021/07/20 07:11:31;;;;;;;25.50;13.20;;;;;;;;;;4975115;28;20031;-74
2021/07/20 07:13:59;;;;;;;20.25;13.38;;;;;;;;;;4974685;28;20034;-74
2021/07/20 07:16:25;;;;;;;17.90;14.93;;;;;;;;;;4974654;28;20034;-74
2021/07/20 07:18:51;;;;;;;22.08;14.57;;;;;;;;;;4974729;28;20109;-74
2021/07/20 07:21:17;;;;;;;28.52;13.88;;;;;;;;;;4975007;28;20027;-74
2021/07/20 07:23:43;;;;;;;17.05;12.63;;;;;;;;;;4974647;28;20034;-73
2021/07/20 07:26:13;;;;;;;22.98;12.82;;;;;;;;;;4975332;28;20468;-72
2021/07/20 07:28:39;;;;;;;18.70;11.88;;;;;;;;;;4979090;28;20029;-73
2021/07/20 07:31:05;;;;;;;19.83;11.82;;;;;;;;;;4978855;28;20041;-72
2021/07/20 07:33:31;;;;;;;11.98;10.57;;;;;;;;;;4978305;28;20078;-73
2021/07/20 07:35:57;;;;;;;14.77;10.70;;;;;;;;;;4977862;28;20037;-74
2021/07/20 07:38:24;;;;;;;11.27;9.63;;;;;;;;;;4978500;28;20030;-72
2021/07/20 07:40:52;;;;;;;15.93;10.52;;;;;;;;;;4977896;28;20457;-72
2021/07/20 07:43:18;;;;;;;14.38;9.55;;;;;;;;;;4978283;28;20046;-73
2021/07/20 07:45:46;;;;;;;15.52;10.77;;;;;;;;;;4977844;28;20029;-74
2021/07/20 07:48:12;;;;;;;12.85;10.02;;;;;;;;;;4978222;28;20027;-74
2021/07/20 07:50:38;;;;;;;24.55;12.82;;;;;;;;;;4977952;28;20533;-73
2021/07/20 07:53:04;;;;;;;14.27;11.43;;;;;;;;;;4977771;28;20477;-73
2021/07/20 07:55:31;;;;;;;13.48;11.93;;;;;;;;;;4978556;28;20508;-72
2021/07/20 07:57:57;;;;;;;16.65;11.73;;;;;;;;;;4977545;28;20038;-72
2021/07/20 08:00:25;;;;;;;17.75;10.00;;;;;;;;;;4977787;28;20026;-72
2021/07/20 08:02:51;;;;;;;13.82;10.50;;;;;;;;;;4977675;28;20033;-72
2021/07/20 08:05:17;;;;;;;24.88;10.18;;;;;;;;;;4977916;28;20109;-73
2021/07/20 08:07:44;;;;;;;12.43;9.85;;;;;;;;;;4977458;28;20033;-73
2021/07/20 08:10:10;;;;;;;13.07;10.10;;;;;;;;;;4977969;28;20027;-73
2021/07/20 08:12:36;;;;;;;15.15;11.15;;;;;;;;;;4977679;28;20114;-74
2021/07/20 08:15:02;;;;;;;15.90;11.68;;;;;;;;;;4978308;28;20077;-73
2021/07/20 08:17:28;;;;;;;15.23;10.85;;;;;;;;;;4977455;28;20023;-74
2021/07/20 08:19:56;;;;;;;20.80;11.45;;;;;;;;;;4977179;28;20038;-74
2021/07/20 08:22:23;;;;;;;16.23;10.48;;;;;;;;;;4977875;28;20055;-73
2021/07/20 08:24:54;;;;;;;11.80;10.30;;;;;;;;;;4977263;28;20034;-74
2021/07/20 08:27:22;;;;;;;14.38;9.73;;;;;;;;;;4977457;28;20023;-72
2021/07/20 08:29:50;;;;;;;15.43;11.00;;;;;;;;;;4977146;28;20027;-73
2021/07/20 08:32:16;;;;;;;13.40;10.70;;;;;;;;;;4976940;28;20022;-73
2021/07/20 08:34:44;;;;;;;12.13;10.77;;;;;;;;;;4977028;28;20078;-76
2021/07/20 08:37:10;;;;;;;13.27;10.48;;;;;;;;;;4977254;28;20111;-73
2021/07/20 08:39:36;;;;;;;15.02;10.90;;;;;;;;;;4976976;28;20054;-74
2021/07/20 08:42:15;;;;;;;11.40;10.20;;;;;;;;;;4977679;28;20110;-73
2021/07/20 08:44:44;;;;;;;13.48;10.88;;;;;;;;;;4977129;28;20038;-73
2021/07/20 08:47:20;;;;;;;12.85;9.85;;;;;;;;;;4977280;28;20123;-74
2021/07/20 08:50:06;;;;;;;12.88;11.15;;;;;;;;;;4977095;28;20027;-73
2021/07/20 08:52:52;;;;;;;15.95;10.65;;;;;;;;;;4982061;28;20023;-73
2021/07/20 08:55:19;;;;;;;11.95;10.02;;;;;;;;;;4976064;28;20477;-74
2021/07/20 08:57:48;;;;;;;18.95;11.60;;;;;;;;;;4975837;28;20027;-74
2021/07/20 09:00:16;;;;;;;32.92;10.85;;;;;;;;;;4977411;28;20035;-73
2021/07/20 09:02:47;;;;;;;16.27;10.98;;;;;;;;;;4976537;28;20031;-75
2021/07/20 09:05:16;;;;;;;14.70;10.50;;;;;;;;;;4976908;28;20062;-75
2021/07/20 09:07:47;;;;;;;20.80;11.90;;;;;;;;;;4976360;28;20473;-74
2021/07/20 09:10:13;;;;;;;15.13;10.33;;;;;;;;;;4976695;28;20022;-74
2021/07/20 09:12:41;;;;;;;14.48;9.93;;;;;;;;;;4976937;28;20029;-72
2021/07/20 09:15:08;;;;;;;21.95;11.07;;;;;;;;;;4976737;28;20023;-72
2021/07/20 09:17:39;;;;;;;26.17;12.55;;;;;;;;;;4976796;28;20035;-77
2021/07/20 09:20:07;;;;;;;20.70;10.40;;;;;;;;;;4976229;28;20441;-73
2021/07/20 09:22:36;;;;;;;19.52;12.45;;;;;;;;;;4976304;28;20023;-73
2021/07/20 09:25:06;;;;;;;18.08;15.20;;;;;;;;;;4975849;28;20035;-72
2021/07/20 09:27:40;;;;;;;24.38;13.63;;;;;;;;;;4976422;28;20031;-75
2021/07/20 09:30:10;;;;;;;19.77;13.57;;;;;;;;;;4976628;28;20037;-73
2021/07/20 09:32:56;;;;;;;40.78;13.90;;;;;;;;;;4976043;28;20528;-73
2021/07/20 09:35:42;;;;;;;14.05;11.25;;;;;;;;;;4975121;28;20031;-73
2021/07/20 09:38:16;;;;;;;19.30;12.45;;;;;;;;;;4975259;28;20434;-73
2021/07/20 09:40:51;;;;;;;22.85;11.77;;;;;;;;;;4976008;28;20022;-71
2021/07/20 09:43:25;;;;;;;22.80;12.63;;;;;;;;;;4975997;28;20441;-74
2021/07/20 09:45:51;;;;;;;29.35;13.35;;;;;;;;;;4975576;28;20098;-74
2021/07/20 09:48:22;;;;;;;17.63;11.73;;;;;;;;;;4975815;28;20023;-72
2021/07/20 09:50:48;;;;;;;18.48;13.00;;;;;;;;;;4975671;28;20027;-73
2021/07/20 09:53:20;;;;;;;25.85;13.82;;;;;;;;;;4975445;28;20022;-73
2021/07/20 09:55:58;;;;;;;22.83;15.77;;;;;;;;;;4975528;28;20512;-72
2021/07/20 09:58:33;;;;;;;17.05;12.80;;;;;;;;;;4975805;28;20058;-75
2021/07/20 10:01:05;;;;;;;13.40;10.95;;;;;;;;;;4976330;28;20027;-76
2021/07/20 10:03:51;;;;;;;19.85;14.02;;;;;;;;;;4976025;28;20039;-75
2021/07/20 10:06:32;;;;;;;20.52;12.80;;;;;;;;;;4975580;28;20030;-73
2021/07/20 10:08:59;;;;;;;30.88;13.75;;;;;;;;;;4975284;28;20074;-73
2021/07/20 10:11:28;;;;;;;19.58;11.85;;;;;;;;;;4975794;28;20038;-74
2021/07/20 10:13:59;;;;;;;12.60;11.07;;;;;;;;;;4975607;28;20034;-72
2021/07/20 10:16:27;;;;;;;17.38;12.27;;;;;;;;;;4975354;28;20023;-72
2021/07/20 10:18:59;;;;;;;17.17;11.35;;;;;;;;;;4975423;28;20412;-73
2021/07/20 10:21:25;;;;;;;22.13;12.43;;;;;;;;;;4975264;28;20463;-73
2021/07/20 10:23:53;;;;;;;30.70;12.13;;;;;;;;;;4975241;28;20083;-74
2021/07/20 10:26:21;;;;;;;14.05;10.63;;;;;;;;;;4975245;28;20023;-73
2021/07/20 10:28:49;;;;;;;22.17;11.77;;;;;;;;;;4975328;28;20070;-72
2021/07/20 10:31:17;;;;;;;16.23;10.40;;;;;;;;;;4975503;28;20037;-74
2021/07/20 10:33:45;;;;;;;19.75;10.40;;;;;;;;;;4975204;28;20019;-74
2021/07/20 10:36:31;;;;;;;13.70;10.98;;;;;;;;;;4975809;28;20030;-75
2021/07/20 10:39:01;;;;;;;18.85;10.38;;;;;;;;;;4974355;28;20481;-75
2021/07/20 10:41:29;;;;;;;26.13;9.88;;;;;;;;;;4975110;28;20034;-75
2021/07/20 10:44:00;;;;;;;15.45;8.68;;;;;;;;;;4974928;28;20066;-75
2021/07/20 10:46:27;;;;;;;13.02;9.88;;;;;;;;;;4974854;28;20481;-74
2021/07/20 10:48:53;;;;;;;13.07;9.23;;;;;;;;;;4975368;28;20035;-73
2021/07/20 10:51:20;;;;;;;10.30;8.23;;;;;;;;;;4974940;28;20548;-73
2021/07/20 10:53:50;;;;;;;12.35;8.45;;;;;;;;;;4974562;28;20059;-74
2021/07/20 10:56:36;;;;;;;11.90;8.18;;;;;;;;;;4974082;28;20485;-75
2021/07/20 10:59:12;;;;;;;13.55;8.63;;;;;;;;;;4974878;28;20500;-73
2021/07/20 11:01:48;;;;;;;14.93;9.25;;;;;;;;;;4973435;28;20022;-72
2021/07/20 11:04:34;;;;;;;10.73;8.00;;;;;;;;;;4986389;28;20039;-75
2021/07/20 11:07:00;;;;;;;10.25;8.73;;;;;;;;;;4977759;28;20030;-78
2021/07/20 11:09:26;;;;;;;14.20;9.20;;;;;;;;;;4983279;28;20061;-76
2021/07/20 11:11:54;;;;;;;10.77;8.57;;;;;;;;;;4990511;28;20027;-76
2021/07/20 11:14:21;;;;;;;7.90;7.10;;;;;;;;;;4984450;28;20023;-75
2021/07/20 11:16:47;;;;;;;10.65;8.13;;;;;;;;;;4998735;28;20457;-75
2021/07/20 11:19:13;;;;;;;9.30;7.97;;;;;;;;;;4996653;28;20030;-75
2021/07/20 11:21:39;;;;;;;15.68;8.15;;;;;;;;;;4997284;28;20058;-78
2021/07/20 11:24:05;;;;;;;9.90;7.57;;;;;;;;;;4997493;28;20030;-76
2021/07/20 11:26:31;;;;;;;9.73;7.40;;;;;;;;;;4998193;28;20049;-76
2021/07/20 11:28:58;;;;;;;12.57;9.90;;;;;;;;;;4994884;28;20084;-75
2021/07/20 11:31:43;;;;;;;11.18;8.30;;;;;;;;;;4978103;28;20416;-76
2021/07/20 11:34:12;;;;;;;10.18;8.52;;;;;;;;;;4977357;28;20038;-76
2021/07/20 11:36:39;;;;;;;11.63;8.70;;;;;;;;;;4977862;28;20019;-76
2021/07/20 11:39:05;;;;;;;13.32;9.95;;;;;;;;;;4979960;28;20045;-76
2021/07/20 11:41:34;;;;;;;11.52;8.75;;;;;;;;;;4997953;28;20073;-76
2021/07/20 11:44:03;;;;;;;11.05;8.27;;;;;;;;;;4998061;28;20388;-77
2021/07/20 11:46:34;;;;;;;9.02;8.00;;;;;;;;;;4997503;28;20026;-77
2021/07/20 11:49:02;;;;;;;10.98;7.95;;;;;;;;;;4995479;28;20526;-75
2021/07/20 11:51:31;;;;;;;14.15;9.73;;;;;;;;;;4997239;28;20034;-78
2021/07/20 11:54:00;;;;;;;10.98;8.13;;;;;;;;;;4997407;28;20436;-78
2021/07/20 11:56:28;;;;;;;14.93;9.05;;;;;;;;;;4998343;28;20486;-80
2021/07/20 11:58:59;;;;;;;11.20;7.68;;;;;;;;;;4995435;28;20113;-74
2021/07/20 12:01:46;;;;;;;14.32;8.32;;;;;;;;;;4977868;28;20034;-76
2021/07/20 12:04:32;;;;;;;14.40;9.52;;;;;;;;;;5003688;28;20035;-73
2021/07/20 12:07:18;;;;;;;9.65;7.35;;;;;;;;;;5004502;28;20069;-76
2021/07/20 12:10:04;;;;;;;8.65;7.20;;;;;;;;;;5003258;28;20130;-75
2021/07/20 12:12:37;;;;;;;12.70;9.02;;;;;;;;;;5004293;28;20043;-77
2021/07/20 12:15:03;;;;;;;14.52;9.45;;;;;;;;;;4978386;28;20027;-78
2021/07/20 12:17:33;;;;;;;16.63;8.52;;;;;;;;;;4977743;28;20373;-76
2021/07/20 12:19:59;;;;;;;17.60;10.05;;;;;;;;;;4986450;28;20089;-76
2021/07/20 12:22:25;;;;;;;10.35;9.05;;;;;;;;;;4997526;28;20041;-76
2021/07/20 12:24:51;;;;;;;9.98;8.88;;;;;;;;;;4997172;28;20038;-74
2021/07/20 12:27:17;;;;;;;11.50;9.40;;;;;;;;;;4997998;28;20109;-78
2021/07/20 12:29:43;;;;;;;14.07;8.95;;;;;;;;;;4996374;28;20117;-78
2021/07/20 12:32:16;;;;;;;14.68;9.25;;;;;;;;;;4997921;28;20030;-81
2021/07/20 12:34:43;;;;;;;10.93;9.10;;;;;;;;;;4997392;28;20030;-77
2021/07/20 12:37:09;;;;;;;9.32;8.43;;;;;;;;;;4997466;28;20022;-79
2021/07/20 12:39:35;;;;;;;10.20;8.88;;;;;;;;;;4995689;28;20026;-79
2021/07/20 12:42:01;;;;;;;11.65;8.98;;;;;;;;;;4997978;28;20045;-79
2021/07/20 12:44:31;;;;;;;15.05;10.90;;;;;;;;;;4996797;28;20045;-78
2021/07/20 12:47:03;;;;;;;10.88;8.75;;;;;;;;;;4996944;28;20030;-78
2021/07/20 12:49:29;;;;;;;13.80;9.15;;;;;;;;;;4994660;28;20085;-77
2021/07/20 12:51:56;;;;;;;15.55;10.68;;;;;;;;;;4997080;28;20062;-78
2021/07/20 12:54:42;;;;;;;13.23;10.10;;;;;;;;;;4996896;28;20137;-76
2021/07/20 12:57:09;;;;;;;15.35;10.18;;;;;;;;;;4995966;28;20033;-77
2021/07/20 12:59:35;;;;;;;11.82;8.98;;;;;;;;;;4994710;28;20090;-77
2021/07/20 13:02:02;;;;;;;10.23;9.15;;;;;;;;;;4997722;28;20031;-81
2021/07/20 13:04:28;;;;;;;16.63;9.40;;;;;;;;;;4997250;28;20045;-78
2021/07/20 13:06:54;;;;;;;13.60;9.43;;;;;;;;;;4994904;28;20473;-76
2021/07/20 13:09:21;;;;;;;11.48;9.80;;;;;;;;;;4976242;28;20031;-76
2021/07/20 13:11:47;;;;;;;19.35;9.90;;;;;;;;;;4976846;28;20035;-75
2021/07/20 13:14:13;;;;;;;22.67;9.05;;;;;;;;;;4976774;28;20392;-74
2021/07/20 13:16:41;;;;;;;12.13;9.05;;;;;;;;;;4976314;28;20097;-75
2021/07/20 13:19:07;;;;;;;14.93;9.57;;;;;;;;;;4976289;28;20085;-74
2021/07/20 13:21:34;;;;;;;15.23;10.20;;;;;;;;;;4976043;28;20033;-74
2021/07/20 13:24:01;;;;;;;13.50;8.95;;;;;;;;;;4975838;28;20123;-74
2021/07/20 13:26:29;;;;;;;11.65;8.98;;;;;;;;;;4976767;28;20500;-74
2021/07/20 13:28:56;;;;;;;13.65;9.95;;;;;;;;;;4976059;28;20451;-73
2021/07/20 13:31:27;;;;;;;12.52;9.27;;;;;;;;;;4975546;28;20030;-73
2021/07/20 13:33:53;;;;;;;16.35;9.43;;;;;;;;;;4976241;28;20045;-76
2021/07/20 13:36:19;;;;;;;17.38;10.80;;;;;;;;;;4979120;28;20476;-76
2021/07/20 13:38:46;;;;;;;21.15;11.07;;;;;;;;;;4995901;28;20072;-77
2021/07/20 13:41:12;;;;;;;17.65;10.18;;;;;;;;;;4995251;28;20072;-78
2021/07/20 13:43:38;;;;;;;14.70;10.27;;;;;;;;;;4980067;28;20388;-76
2021/07/20 13:46:04;;;;;;;15.18;9.23;;;;;;;;;;4976459;28;20027;-76
2021/07/20 13:48:30;;;;;;;16.67;10.68;;;;;;;;;;4981024;28;20030;-77
2021/07/20 13:50:57;;;;;;;11.85;9.48;;;;;;;;;;4994854;28;20050;-78
2021/07/20 13:53:24;;;;;;;11.88;9.90;;;;;;;;;;4995704;28;20357;-80
2021/07/20 13:55:52;;;;;;;12.23;9.57;;;;;;;;;;4996706;28;20023;-78
2021/07/20 13:58:19;;;;;;;12.52;9.32;;;;;;;;;;4996780;28;20027;-80
2021/07/20 14:00:45;;;;;;;13.73;10.15;;;;;;;;;;4989397;28;20070;-80
2021/07/20 14:03:11;;;;;;;12.68;10.60;;;;;;;;;;4977138;28;20029;-78
2021/07/20 14:05:38;;;;;;;12.88;10.15;;;;;;;;;;4977453;28;20022;-77
2021/07/20 14:08:07;;;;;;;11.25;10.07;;;;;;;;;;4976881;28;20039;-76
2021/07/20 14:10:33;;;;;;;16.48;10.02;;;;;;;;;;4978519;28;20026;-76
2021/07/20 14:12:59;;;;;;;18.50;8.88;;;;;;;;;;4995966;28;20028;-76
2021/07/20 14:15:27;;;;;;;12.63;10.02;;;;;;;;;;4981603;28;20022;-73
2021/07/20 14:17:54;;;;;;;12.10;9.60;;;;;;;;;;4977544;28;20098;-75
2021/07/20 14:20:20;;;;;;;24.08;8.88;;;;;;;;;;4973908;28;20027;-77
2021/07/20 14:22:46;;;;;;;15.32;10.90;;;;;;;;;;4974838;28;20498;-77
2021/07/20 14:25:12;;;;;;;14.65;10.57;;;;;;;;;;4975484;28;20046;-76
2021/07/20 14:27:38;;;;;;;17.15;8.85;;;;;;;;;;4974964;28;20120;-73
2021/07/20 14:30:06;;;;;;;13.02;8.43;;;;;;;;;;4975990;28;20082;-75